sensor_id;sensor_type;location;lat;lon;timestamp;P1;durP1;ratioP1;P2;durP2;ratioP2
19543;SDS011;9917;51.256;7.152;2023-03-01T00:02:03;13.87;;;8.53;;
19543;SDS011;9917;51.256;7.152;2023-03-01T00:04:29;12.20;;;8.10;;
19543;SDS011;9917;51.256;7.152;2023-03-01T00:06:58;14.00;;;8.87;;
19543;SDS011;9917;51.256;7.152;2023-03-01T00:09:23;13.83;;;8.50;;
19543;SDS011;9917;51.256;7.152;2023-03-01T00:11:51;13.17;;;8.60;;
19543;SDS011;9917;51.256;7.152;2023-03-01T00:14:16;13.73;;;8.77;;
19543;SDS011;9917;51.256;7.152;2023-03-01T00:16:43;14.00;;;8.40;;
19543;SDS011;9917;51.256;7.152;2023-03-01T00:19:12;14.63;;;8.67;;
19543;SDS011;9917;51.256;7.152;2023-03-01T00:21:38;14.47;;;7.83;;
19543;SDS011;9917;51.256;7.152;2023-03-01T00:24:05;13.77;;;8.13;;
19543;SDS011;9917;51.256;7.152;2023-03-01T00:26:31;15.13;;;8.07;;
19543;SDS011;9917;51.256;7.152;2023-03-01T00:28:58;16.83;;;8.43;;
19543;SDS011;9917;51.256;7.152;2023-03-01T00:31:26;14.27;;;9.10;;
19543;SDS011;9917;51.256;7.152;2023-03-01T00:33:52;11.20;;;7.47;;
19543;SDS011;9917;51.256;7.152;2023-03-01T00:36:18;12.83;;;8.13;;
19543;SDS011;9917;51.256;7.152;2023-03-01T00:38:45;12.13;;;7.67;;
19543;SDS011;9917;51.256;7.152;2023-03-01T00:41:11;15.93;;;8.40;;
19543;SDS011;9917;51.256;7.152;2023-03-01T00:43:38;13.30;;;8.53;;
19543;SDS011;9917;51.256;7.152;2023-03-01T00:46:06;11.97;;;8.13;;
19543;SDS011;9917;51.256;7.152;2023-03-01T00:48:34;15.47;;;8.83;;
19543;SDS011;9917;51.256;7.152;2023-03-01T00:51:04;13.60;;;8.50;;
19543;SDS011;9917;51.256;7.152;2023-03-01T00:53:31;15.07;;;8.70;;
19543;SDS011;9917;51.256;7.152;2023-03-01T00:55:57;14.80;;;8.47;;
19543;SDS011;9917;51.256;7.152;2023-03-01T00:58:23;14.20;;;8.47;;
19543;SDS011;9917;51.256;7.152;2023-03-01T01:00:49;13.00;;;8.80;;
19543;SDS011;9917;51.256;7.152;2023-03-01T01:03:16;14.63;;;8.70;;
19543;SDS011;9917;51.256;7.152;2023-03-01T01:05:41;17.87;;;8.77;;
19543;SDS011;9917;51.256;7.152;2023-03-01T01:08:07;11.20;;;7.87;;
19543;SDS011;9917;51.256;7.152;2023-03-01T01:10:33;11.47;;;8.17;;
19543;SDS011;9917;51.256;7.152;2023-03-01T01:12:59;11.93;;;8.40;;
19543;SDS011;9917;51.256;7.152;2023-03-01T01:15:25;13.67;;;8.53;;
19543;SDS011;9917;51.256;7.152;2023-03-01T01:17:51;16.43;;;8.53;;
19543;SDS011;9917;51.256;7.152;2023-03-01T01:20:18;13.93;;;8.37;;
19543;SDS011;9917;51.256;7.152;2023-03-01T01:22:44;13.80;;;8.77;;
19543;SDS011;9917;51.256;7.152;2023-03-01T01:25:10;13.60;;;8.30;;
19543;SDS011;9917;51.256;7.152;2023-03-01T01:27:36;11.67;;;9.03;;
19543;SDS011;9917;51.256;7.152;2023-03-01T01:30:02;13.67;;;8.23;;
19543;SDS011;9917;51.256;7.152;2023-03-01T01:32:28;17.63;;;9.30;;
19543;SDS011;9917;51.256;7.152;2023-03-01T01:34:54;13.03;;;8.73;;
19543;SDS011;9917;51.256;7.152;2023-03-01T01:37:21;15.90;;;8.77;;
19543;SDS011;9917;51.256;7.152;2023-03-01T01:39:47;11.50;;;7.73;;
19543;SDS011;9917;51.256;7.152;2023-03-01T01:42:14;15.37;;;8.70;;
19543;SDS011;9917;51.256;7.152;2023-03-01T01:44:42;18.90;;;9.17;;
19543;SDS011;9917;51.256;7.152;2023-03-01T01:47:12;12.80;;;8.53;;
19543;SDS011;9917;51.256;7.152;2023-03-01T01:49:41;13.57;;;9.00;;
19543;SDS011;9917;51.256;7.152;2023-03-01T01:52:10;13.53;;;8.60;;
19543;SDS011;9917;51.256;7.152;2023-03-01T01:54:41;13.20;;;8.00;;
19543;SDS011;9917;51.256;7.152;2023-03-01T01:57:13;13.63;;;9.00;;
19543;SDS011;9917;51.256;7.152;2023-03-01T01:59:43;14.30;;;8.60;;
19543;SDS011;9917;51.256;7.152;2023-03-01T02:02:13;14.93;;;8.43;;
19543;SDS011;9917;51.256;7.152;2023-03-01T02:04:39;13.27;;;8.63;;
19543;SDS011;9917;51.256;7.152;2023-03-01T02:07:07;15.30;;;9.17;;
19543;SDS011;9917;51.256;7.152;2023-03-01T02:09:38;17.57;;;8.67;;
19543;SDS011;9917;51.256;7.152;2023-03-01T02:12:05;13.37;;;8.50;;
19543;SDS011;9917;51.256;7.152;2023-03-01T02:14:31;14.67;;;8.67;;
19543;SDS011;9917;51.256;7.152;2023-03-01T02:16:57;13.33;;;8.97;;
19543;SDS011;9917;51.256;7.152;2023-03-01T02:19:26;12.60;;;8.20;;
19543;SDS011;9917;51.256;7.152;2023-03-01T02:22:03;16.73;;;8.80;;
19543;SDS011;9917;51.256;7.152;2023-03-01T02:24:38;14.43;;;8.30;;
19543;SDS011;9917;51.256;7.152;2023-03-01T02:27:10;13.27;;;8.37;;
19543;SDS011;9917;51.256;7.152;2023-03-01T02:29:38;16.63;;;9.53;;
19543;SDS011;9917;51.256;7.152;2023-03-01T02:32:03;15.87;;;8.90;;
19543;SDS011;9917;51.256;7.152;2023-03-01T02:34:30;15.77;;;8.97;;
19543;SDS011;9917;51.256;7.152;2023-03-01T02:36:59;15.47;;;9.07;;
19543;SDS011;9917;51.256;7.152;2023-03-01T02:39:28;15.70;;;9.33;;
19543;SDS011;9917;51.256;7.152;2023-03-01T02:41:56;15.13;;;9.43;;
19543;SDS011;9917;51.256;7.152;2023-03-01T02:44:23;14.40;;;9.07;;
19543;SDS011;9917;51.256;7.152;2023-03-01T02:46:50;16.07;;;8.63;;
19543;SDS011;9917;51.256;7.152;2023-03-01T02:49:22;16.13;;;9.27;;
19543;SDS011;9917;51.256;7.152;2023-03-01T02:51:56;16.80;;;9.40;;
19543;SDS011;9917;51.256;7.152;2023-03-01T02:54:33;15.70;;;9.03;;
19543;SDS011;9917;51.256;7.152;2023-03-01T02:57:05;17.63;;;8.80;;
19543;SDS011;9917;51.256;7.152;2023-03-01T02:59:31;16.37;;;9.17;;
19543;SDS011;9917;51.256;7.152;2023-03-01T03:02:01;16.47;;;9.80;;
19543;SDS011;9917;51.256;7.152;2023-03-01T03:04:26;16.00;;;9.40;;
19543;SDS011;9917;51.256;7.152;2023-03-01T03:06:52;14.07;;;9.03;;
19543;SDS011;9917;51.256;7.152;2023-03-01T03:09:18;13.43;;;8.50;;
19543;SDS011;9917;51.256;7.152;2023-03-01T03:11:44;16.27;;;8.83;;
19543;SDS011;9917;51.256;7.152;2023-03-01T03:14:11;14.97;;;8.90;;
19543;SDS011;9917;51.256;7.152;2023-03-01T03:16:39;14.63;;;8.73;;
19543;SDS011;9917;51.256;7.152;2023-03-01T03:19:07;17.20;;;9.10;;
19543;SDS011;9917;51.256;7.152;2023-03-01T03:21:33;15.33;;;9.53;;
19543;SDS011;9917;51.256;7.152;2023-03-01T03:23:59;13.63;;;8.70;;
19543;SDS011;9917;51.256;7.152;2023-03-01T03:26:25;15.50;;;9.70;;
19543;SDS011;9917;51.256;7.152;2023-03-01T03:28:51;18.70;;;9.47;;
19543;SDS011;9917;51.256;7.152;2023-03-01T03:31:17;16.47;;;9.60;;
19543;SDS011;9917;51.256;7.152;2023-03-01T03:33:43;15.43;;;9.17;;
19543;SDS011;9917;51.256;7.152;2023-03-01T03:36:13;15.63;;;9.70;;
19543;SDS011;9917;51.256;7.152;2023-03-01T03:38:40;17.63;;;8.63;;
19543;SDS011;9917;51.256;7.152;2023-03-01T03:41:07;14.37;;;9.47;;
19543;SDS011;9917;51.256;7.152;2023-03-01T03:43:33;14.57;;;9.10;;
19543;SDS011;9917;51.256;7.152;2023-03-01T03:46:00;15.83;;;9.67;;
19543;SDS011;9917;51.256;7.152;2023-03-01T03:48:26;15.30;;;9.27;;
19543;SDS011;9917;51.256;7.152;2023-03-01T03:50:53;16.70;;;10.03;;
19543;SDS011;9917;51.256;7.152;2023-03-01T03:53:22;15.23;;;9.43;;
19543;SDS011;9917;51.256;7.152;2023-03-01T03:55:49;16.30;;;9.43;;
19543;SDS011;9917;51.256;7.152;2023-03-01T03:58:15;16.13;;;9.47;;
19543;SDS011;9917;51.256;7.152;2023-03-01T04:00:41;16.13;;;9.33;;
19543;SDS011;9917;51.256;7.152;2023-03-01T04:03:09;15.97;;;9.10;;
19543;SDS011;9917;51.256;7.152;2023-03-01T04:05:36;16.93;;;9.90;;
19543;SDS011;9917;51.256;7.152;2023-03-01T04:08:02;15.17;;;9.70;;
19543;SDS011;9917;51.256;7.152;2023-03-01T04:10:30;14.40;;;9.33;;
19543;SDS011;9917;51.256;7.152;2023-03-01T04:12:58;15.73;;;10.03;;
19543;SDS011;9917;51.256;7.152;2023-03-01T04:15:24;15.97;;;9.40;;
19543;SDS011;9917;51.256;7.152;2023-03-01T04:17:51;15.67;;;9.70;;
19543;SDS011;9917;51.256;7.152;2023-03-01T04:20:18;15.77;;;9.87;;
19543;SDS011;9917;51.256;7.152;2023-03-01T04:22:46;16.70;;;9.77;;
19543;SDS011;9917;51.256;7.152;2023-03-01T04:25:12;17.00;;;9.93;;
19543;SDS011;9917;51.256;7.152;2023-03-01T04:27:39;15.43;;;9.33;;
19543;SDS011;9917;51.256;7.152;2023-03-01T04:30:06;16.63;;;9.67;;
19543;SDS011;9917;51.256;7.152;2023-03-01T04:32:33;17.33;;;10.10;;
19543;SDS011;9917;51.256;7.152;2023-03-01T04:34:59;15.57;;;9.80;;
19543;SDS011;9917;51.256;7.152;2023-03-01T04:37:25;15.90;;;9.40;;
19543;SDS011;9917;51.256;7.152;2023-03-01T04:39:51;18.60;;;9.70;;
19543;SDS011;9917;51.256;7.152;2023-03-01T04:42:17;16.73;;;9.33;;
19543;SDS011;9917;51.256;7.152;2023-03-01T04:44:44;19.43;;;10.63;;
19543;SDS011;9917;51.256;7.152;2023-03-01T04:47:10;16.60;;;9.87;;
19543;SDS011;9917;51.256;7.152;2023-03-01T04:49:36;16.33;;;10.20;;
19543;SDS011;9917;51.256;7.152;2023-03-01T04:52:02;17.20;;;9.80;;
19543;SDS011;9917;51.256;7.152;2023-03-01T04:54:28;15.10;;;9.33;;
19543;SDS011;9917;51.256;7.152;2023-03-01T04:56:55;14.93;;;9.73;;
19543;SDS011;9917;51.256;7.152;2023-03-01T04:59:22;17.63;;;10.07;;
19543;SDS011;9917;51.256;7.152;2023-03-01T05:01:49;15.63;;;10.47;;
19543;SDS011;9917;51.256;7.152;2023-03-01T05:04:15;17.73;;;10.43;;
19543;SDS011;9917;51.256;7.152;2023-03-01T05:06:41;19.20;;;9.83;;
19543;SDS011;9917;51.256;7.152;2023-03-01T05:09:17;15.10;;;9.90;;
19543;SDS011;9917;51.256;7.152;2023-03-01T05:11:43;15.83;;;9.90;;
19543;SDS011;9917;51.256;7.152;2023-03-01T05:14:11;16.40;;;10.37;;
19543;SDS011;9917;51.256;7.152;2023-03-01T05:16:37;16.63;;;10.03;;
19543;SDS011;9917;51.256;7.152;2023-03-01T05:19:06;16.80;;;10.30;;
19543;SDS011;9917;51.256;7.152;2023-03-01T05:21:31;17.67;;;10.27;;
19543;SDS011;9917;51.256;7.152;2023-03-01T05:24:00;17.47;;;10.63;;
19543;SDS011;9917;51.256;7.152;2023-03-01T05:26:26;17.97;;;10.33;;
19543;SDS011;9917;51.256;7.152;2023-03-01T05:28:52;17.10;;;10.20;;
19543;SDS011;9917;51.256;7.152;2023-03-01T05:31:24;15.83;;;10.47;;
19543;SDS011;9917;51.256;7.152;2023-03-01T05:33:50;19.03;;;10.70;;
19543;SDS011;9917;51.256;7.152;2023-03-01T05:36:22;16.30;;;9.73;;
19543;SDS011;9917;51.256;7.152;2023-03-01T05:38:48;17.27;;;10.80;;
19543;SDS011;9917;51.256;7.152;2023-03-01T05:41:15;19.43;;;10.87;;
19543;SDS011;9917;51.256;7.152;2023-03-01T05:43:40;17.60;;;10.37;;
19543;SDS011;9917;51.256;7.152;2023-03-01T05:46:06;16.40;;;10.37;;
19543;SDS011;9917;51.256;7.152;2023-03-01T05:48:32;18.77;;;10.07;;
19543;SDS011;9917;51.256;7.152;2023-03-01T05:50:59;21.37;;;10.77;;
19543;SDS011;9917;51.256;7.152;2023-03-01T05:53:26;19.40;;;10.43;;
19543;SDS011;9917;51.256;7.152;2023-03-01T05:55:52;18.37;;;10.20;;
19543;SDS011;9917;51.256;7.152;2023-03-01T05:58:18;16.30;;;10.27;;
19543;SDS011;9917;51.256;7.152;2023-03-01T06:00:45;17.17;;;10.13;;
19543;SDS011;9917;51.256;7.152;2023-03-01T06:03:12;15.67;;;10.43;;
19543;SDS011;9917;51.256;7.152;2023-03-01T06:05:39;16.30;;;9.13;;
19543;SDS011;9917;51.256;7.152;2023-03-01T06:08:06;13.67;;;8.93;;
19543;SDS011;9917;51.256;7.152;2023-03-01T06:10:33;15.67;;;9.20;;
19543;SDS011;9917;51.256;7.152;2023-03-01T06:12:59;17.63;;;10.10;;
19543;SDS011;9917;51.256;7.152;2023-03-01T06:15:25;18.27;;;10.17;;
19543;SDS011;9917;51.256;7.152;2023-03-01T06:17:52;15.87;;;10.43;;
19543;SDS011;9917;51.256;7.152;2023-03-01T06:20:19;18.50;;;10.03;;
19543;SDS011;9917;51.256;7.152;2023-03-01T06:22:48;15.60;;;10.10;;
19543;SDS011;9917;51.256;7.152;2023-03-01T06:25:14;21.40;;;10.83;;
19543;SDS011;9917;51.256;7.152;2023-03-01T06:27:43;18.33;;;9.80;;
19543;SDS011;9917;51.256;7.152;2023-03-01T06:30:09;19.03;;;11.03;;
19543;SDS011;9917;51.256;7.152;2023-03-01T06:32:36;18.37;;;11.30;;
19543;SDS011;9917;51.256;7.152;2023-03-01T06:35:03;20.37;;;10.27;;
19543;SDS011;9917;51.256;7.152;2023-03-01T06:37:29;15.93;;;9.80;;
19543;SDS011;9917;51.256;7.152;2023-03-01T06:39:55;16.37;;;9.50;;
19543;SDS011;9917;51.256;7.152;2023-03-01T06:42:21;17.40;;;10.40;;
19543;SDS011;9917;51.256;7.152;2023-03-01T06:44:50;17.10;;;9.97;;
19543;SDS011;9917;51.256;7.152;2023-03-01T06:47:16;16.73;;;10.77;;
19543;SDS011;9917;51.256;7.152;2023-03-01T06:49:42;15.90;;;9.80;;
19543;SDS011;9917;51.256;7.152;2023-03-01T06:52:07;16.83;;;10.30;;
19543;SDS011;9917;51.256;7.152;2023-03-01T06:54:33;17.67;;;10.00;;
19543;SDS011;9917;51.256;7.152;2023-03-01T06:56:59;17.93;;;10.10;;
19543;SDS011;9917;51.256;7.152;2023-03-01T06:59:25;17.77;;;10.07;;
19543;SDS011;9917;51.256;7.152;2023-03-01T07:01:52;17.17;;;10.30;;
19543;SDS011;9917;51.256;7.152;2023-03-01T07:04:18;21.60;;;10.50;;
19543;SDS011;9917;51.256;7.152;2023-03-01T07:06:44;19.53;;;10.83;;
19543;SDS011;9917;51.256;7.152;2023-03-01T07:09:10;18.97;;;10.70;;
19543;SDS011;9917;51.256;7.152;2023-03-01T07:11:36;17.33;;;10.17;;
19543;SDS011;9917;51.256;7.152;2023-03-01T07:14:02;17.73;;;10.37;;
19543;SDS011;9917;51.256;7.152;2023-03-01T07:16:28;17.17;;;10.63;;
19543;SDS011;9917;51.256;7.152;2023-03-01T07:18:55;18.60;;;10.40;;
19543;SDS011;9917;51.256;7.152;2023-03-01T07:21:21;19.90;;;10.83;;
19543;SDS011;9917;51.256;7.152;2023-03-01T07:23:47;23.77;;;11.53;;
19543;SDS011;9917;51.256;7.152;2023-03-01T07:26:12;20.03;;;11.23;;
19543;SDS011;9917;51.256;7.152;2023-03-01T07:28:38;18.83;;;11.07;;
19543;SDS011;9917;51.256;7.152;2023-03-01T07:31:04;17.60;;;10.47;;
19543;SDS011;9917;51.256;7.152;2023-03-01T07:33:31;18.13;;;11.10;;
19543;SDS011;9917;51.256;7.152;2023-03-01T07:35:59;20.03;;;11.23;;
19543;SDS011;9917;51.256;7.152;2023-03-01T07:38:25;19.77;;;11.43;;
19543;SDS011;9917;51.256;7.152;2023-03-01T07:40:52;16.33;;;10.40;;
19543;SDS011;9917;51.256;7.152;2023-03-01T07:43:18;21.43;;;10.87;;
19543;SDS011;9917;51.256;7.152;2023-03-01T07:45:43;19.43;;;10.93;;
19543;SDS011;9917;51.256;7.152;2023-03-01T07:48:10;21.73;;;10.70;;
19543;SDS011;9917;51.256;7.152;2023-03-01T07:50:36;20.50;;;11.47;;
19543;SDS011;9917;51.256;7.152;2023-03-01T07:53:03;18.27;;;10.60;;
19543;SDS011;9917;51.256;7.152;2023-03-01T07:55:29;16.80;;;10.00;;
19543;SDS011;9917;51.256;7.152;2023-03-01T07:57:55;17.57;;;10.13;;
19543;SDS011;9917;51.256;7.152;2023-03-01T08:00:20;15.13;;;10.20;;
19543;SDS011;9917;51.256;7.152;2023-03-01T08:02:46;16.43;;;10.40;;
19543;SDS011;9917;51.256;7.152;2023-03-01T08:05:12;16.93;;;9.53;;
19543;SDS011;9917;51.256;7.152;2023-03-01T08:07:38;14.33;;;9.53;;
19543;SDS011;9917;51.256;7.152;2023-03-01T08:10:05;17.37;;;11.30;;
19543;SDS011;9917;51.256;7.152;2023-03-01T08:12:32;14.10;;;9.10;;
19543;SDS011;9917;51.256;7.152;2023-03-01T08:14:57;15.37;;;9.27;;
19543;SDS011;9917;51.256;7.152;2023-03-01T08:17:23;15.57;;;9.60;;
19543;SDS011;9917;51.256;7.152;2023-03-01T08:19:49;14.30;;;9.50;;
19543;SDS011;9917;51.256;7.152;2023-03-01T08:22:14;16.27;;;9.20;;
19543;SDS011;9917;51.256;7.152;2023-03-01T08:24:40;17.17;;;9.98;;
19543;SDS011;9917;51.256;7.152;2023-03-01T08:27:07;14.18;;;9.73;;
19543;SDS011;9917;51.256;7.152;2023-03-01T08:29:33;16.27;;;10.25;;
19543;SDS011;9917;51.256;7.152;2023-03-01T08:31:59;18.55;;;11.18;;
19543;SDS011;9917;51.256;7.152;2023-03-01T08:34:25;15.23;;;10.68;;
19543;SDS011;9917;51.256;7.152;2023-03-01T08:36:51;17.20;;;11.85;;
19543;SDS011;9917;51.256;7.152;2023-03-01T08:39:18;15.85;;;11.13;;
19543;SDS011;9917;51.256;7.152;2023-03-01T08:41:44;20.50;;;11.30;;
19543;SDS011;9917;51.256;7.152;2023-03-01T08:44:12;16.33;;;10.77;;
19543;SDS011;9917;51.256;7.152;2023-03-01T08:46:40;17.40;;;9.95;;
19543;SDS011;9917;51.256;7.152;2023-03-01T08:49:06;18.55;;;10.27;;
19543;SDS011;9917;51.256;7.152;2023-03-01T08:51:34;13.73;;;9.40;;
19543;SDS011;9917;51.256;7.152;2023-03-01T08:54:00;14.77;;;9.38;;
19543;SDS011;9917;51.256;7.152;2023-03-01T08:56:26;13.45;;;9.60;;
19543;SDS011;9917;51.256;7.152;2023-03-01T08:58:51;16.92;;;8.85;;
19543;SDS011;9917;51.256;7.152;2023-03-01T09:01:18;12.80;;;8.98;;
19543;SDS011;9917;51.256;7.152;2023-03-01T09:03:44;13.35;;;9.00;;
19543;SDS011;9917;51.256;7.152;2023-03-01T09:06:11;14.95;;;8.20;;
19543;SDS011;9917;51.256;7.152;2023-03-01T09:08:38;13.65;;;8.05;;
19543;SDS011;9917;51.256;7.152;2023-03-01T09:11:05;14.93;;;8.65;;
19543;SDS011;9917;51.256;7.152;2023-03-01T09:13:35;13.95;;;8.57;;
19543;SDS011;9917;51.256;7.152;2023-03-01T09:16:02;15.20;;;8.02;;
19543;SDS011;9917;51.256;7.152;2023-03-01T09:18:33;13.45;;;8.20;;
19543;SDS011;9917;51.256;7.152;2023-03-01T09:21:03;11.70;;;7.72;;
19543;SDS011;9917;51.256;7.152;2023-03-01T09:23:29;11.95;;;8.32;;
19543;SDS011;9917;51.256;7.152;2023-03-01T09:25:55;12.30;;;7.93;;
19543;SDS011;9917;51.256;7.152;2023-03-01T09:28:21;20.85;;;9.82;;
19543;SDS011;9917;51.256;7.152;2023-03-01T09:30:47;11.30;;;7.68;;
19543;SDS011;9917;51.256;7.152;2023-03-01T09:33:12;12.10;;;7.90;;
19543;SDS011;9917;51.256;7.152;2023-03-01T09:35:39;13.80;;;7.90;;
19543;SDS011;9917;51.256;7.152;2023-03-01T09:38:05;11.30;;;7.55;;
19543;SDS011;9917;51.256;7.152;2023-03-01T09:40:31;12.25;;;7.45;;
19543;SDS011;9917;51.256;7.152;2023-03-01T09:42:59;11.77;;;6.95;;
19543;SDS011;9917;51.256;7.152;2023-03-01T09:45:41;10.80;;;7.10;;
19543;SDS011;9917;51.256;7.152;2023-03-01T09:48:12;11.93;;;7.60;;
19543;SDS011;9917;51.256;7.152;2023-03-01T09:50:44;10.25;;;7.22;;
19543;SDS011;9917;51.256;7.152;2023-03-01T09:53:11;11.57;;;7.97;;
19543;SDS011;9917;51.256;7.152;2023-03-01T09:55:43;10.15;;;6.57;;
19543;SDS011;9917;51.256;7.152;2023-03-01T10:01:00;11.25;;;6.97;;
19543;SDS011;9917;51.256;7.152;2023-03-01T10:03:32;12.77;;;7.65;;
19543;SDS011;9917;51.256;7.152;2023-03-01T10:06:06;12.02;;;7.65;;
19543;SDS011;9917;51.256;7.152;2023-03-01T10:08:38;11.13;;;7.60;;
19543;SDS011;9917;51.256;7.152;2023-03-01T10:11:12;10.65;;;6.85;;
19543;SDS011;9917;51.256;7.152;2023-03-01T10:13:46;10.43;;;7.07;;
19543;SDS011;9917;51.256;7.152;2023-03-01T10:16:16;12.82;;;7.70;;
19543;SDS011;9917;51.256;7.152;2023-03-01T10:18:46;10.00;;;7.43;;
19543;SDS011;9917;51.256;7.152;2023-03-01T10:21:19;12.95;;;7.60;;
19543;SDS011;9917;51.256;7.152;2023-03-01T10:23:45;9.82;;;7.05;;
19543;SDS011;9917;51.256;7.152;2023-03-01T10:26:20;11.70;;;7.47;;
19543;SDS011;9917;51.256;7.152;2023-03-01T10:28:58;12.13;;;6.80;;
19543;SDS011;9917;51.256;7.152;2023-03-01T10:31:31;11.07;;;6.85;;
19543;SDS011;9917;51.256;7.152;2023-03-01T10:34:04;10.90;;;7.38;;
19543;SDS011;9917;51.256;7.152;2023-03-01T10:36:34;11.25;;;6.57;;
19543;SDS011;9917;51.256;7.152;2023-03-01T10:39:05;13.07;;;7.30;;
19543;SDS011;9917;51.256;7.152;2023-03-01T10:41:40;10.48;;;6.72;;
19543;SDS011;9917;51.256;7.152;2023-03-01T10:44:34;13.55;;;7.20;;
19543;SDS011;9917;51.256;7.152;2023-03-01T10:47:02;12.90;;;7.25;;
19543;SDS011;9917;51.256;7.152;2023-03-01T10:49:27;11.13;;;6.85;;
19543;SDS011;9917;51.256;7.152;2023-03-01T10:51:55;10.00;;;6.38;;
19543;SDS011;9917;51.256;7.152;2023-03-01T10:54:36;11.35;;;7.05;;
19543;SDS011;9917;51.256;7.152;2023-03-01T10:57:03;10.45;;;7.40;;
19543;SDS011;9917;51.256;7.152;2023-03-01T10:59:30;10.25;;;6.50;;
19543;SDS011;9917;51.256;7.152;2023-03-01T11:02:01;10.88;;;6.72;;
19543;SDS011;9917;51.256;7.152;2023-03-01T11:04:29;10.20;;;6.47;;
19543;SDS011;9917;51.256;7.152;2023-03-01T11:07:03;9.10;;;6.10;;
19543;SDS011;9917;51.256;7.152;2023-03-01T11:09:32;9.88;;;6.05;;
19543;SDS011;9917;51.256;7.152;2023-03-01T11:12:02;9.70;;;6.40;;
19543;SDS011;9917;51.256;7.152;2023-03-01T11:14:34;11.45;;;6.45;;
19543;SDS011;9917;51.256;7.152;2023-03-01T11:17:03;9.63;;;6.68;;
19543;SDS011;9917;51.256;7.152;2023-03-01T11:19:31;9.60;;;6.10;;
19543;SDS011;9917;51.256;7.152;2023-03-01T11:22:00;10.63;;;6.30;;
19543;SDS011;9917;51.256;7.152;2023-03-01T11:24:34;9.60;;;6.60;;
19543;SDS011;9917;51.256;7.152;2023-03-01T11:27:08;9.07;;;6.75;;
19543;SDS011;9917;51.256;7.152;2023-03-01T11:29:51;7.05;;;5.85;;
19543;SDS011;9917;51.256;7.152;2023-03-01T11:32:20;9.75;;;6.68;;
19543;SDS011;9917;51.256;7.152;2023-03-01T11:34:51;12.75;;;7.15;;
19543;SDS011;9917;51.256;7.152;2023-03-01T11:37:31;9.43;;;7.07;;
19543;SDS011;9917;51.256;7.152;2023-03-01T11:40:05;9.60;;;6.50;;
19543;SDS011;9917;51.256;7.152;2023-03-01T11:42:43;9.93;;;6.35;;
19543;SDS011;9917;51.256;7.152;2023-03-01T11:45:17;8.20;;;6.07;;
19543;SDS011;9917;51.256;7.152;2023-03-01T11:47:54;8.88;;;6.22;;
19543;SDS011;9917;51.256;7.152;2023-03-01T11:50:34;7.38;;;5.20;;
19543;SDS011;9917;51.256;7.152;2023-03-01T11:53:17;10.18;;;5.97;;
19543;SDS011;9917;51.256;7.152;2023-03-01T11:56:03;8.95;;;6.35;;
19543;SDS011;9917;51.256;7.152;2023-03-01T11:58:44;8.35;;;5.30;;
19543;SDS011;9917;51.256;7.152;2023-03-01T12:01:25;9.60;;;5.82;;
19543;SDS011;9917;51.256;7.152;2023-03-01T12:07:01;7.93;;;5.03;;
19543;SDS011;9917;51.256;7.152;2023-03-01T12:09:41;9.25;;;5.28;;
19543;SDS011;9917;51.256;7.152;2023-03-01T12:15:18;6.55;;;4.38;;
19543;SDS011;9917;51.256;7.152;2023-03-01T12:18:02;7.00;;;4.55;;
19543;SDS011;9917;51.256;7.152;2023-03-01T12:20:47;9.27;;;5.38;;
19543;SDS011;9917;51.256;7.152;2023-03-01T12:23:28;6.70;;;4.47;;
19543;SDS011;9917;51.256;7.152;2023-03-01T12:26:23;5.97;;;4.88;;
19543;SDS011;9917;51.256;7.152;2023-03-01T12:29:00;7.65;;;4.70;;
19543;SDS011;9917;51.256;7.152;2023-03-01T12:31:44;6.78;;;4.75;;
19543;SDS011;9917;51.256;7.152;2023-03-01T12:34:37;9.35;;;4.75;;
19543;SDS011;9917;51.256;7.152;2023-03-01T12:37:21;8.75;;;4.20;;
19543;SDS011;9917;51.256;7.152;2023-03-01T12:40:00;6.43;;;4.47;;
19543;SDS011;9917;51.256;7.152;2023-03-01T12:43:03;5.68;;;4.55;;
19543;SDS011;9917;51.256;7.152;2023-03-01T12:45:50;7.75;;;4.82;;
19543;SDS011;9917;51.256;7.152;2023-03-01T12:48:47;7.50;;;4.68;;
19543;SDS011;9917;51.256;7.152;2023-03-01T12:51:20;8.38;;;4.30;;
19543;SDS011;9917;51.256;7.152;2023-03-01T12:53:49;6.95;;;4.43;;
19543;SDS011;9917;51.256;7.152;2023-03-01T12:56:17;6.78;;;4.40;;
19543;SDS011;9917;51.256;7.152;2023-03-01T12:58:51;7.05;;;4.32;;
19543;SDS011;9917;51.256;7.152;2023-03-01T13:01:27;7.68;;;4.50;;
19543;SDS011;9917;51.256;7.152;2023-03-01T13:04:06;6.72;;;4.20;;
19543;SDS011;9917;51.256;7.152;2023-03-01T13:06:41;6.30;;;4.80;;
19543;SDS011;9917;51.256;7.152;2023-03-01T13:09:19;7.88;;;4.85;;
19543;SDS011;9917;51.256;7.152;2023-03-01T13:11:50;10.50;;;4.90;;
19543;SDS011;9917;51.256;7.152;2023-03-01T13:14:36;9.25;;;5.07;;
19543;SDS011;9917;51.256;7.152;2023-03-01T13:17:02;7.72;;;5.00;;
19543;SDS011;9917;51.256;7.152;2023-03-01T13:19:28;9.20;;;4.43;;
19543;SDS011;9917;51.256;7.152;2023-03-01T13:21:54;8.25;;;5.43;;
19543;SDS011;9917;51.256;7.152;2023-03-01T13:24:24;8.73;;;5.13;;
19543;SDS011;9917;51.256;7.152;2023-03-01T13:27:10;11.75;;;4.85;;
19543;SDS011;9917;51.256;7.152;2023-03-01T13:29:48;7.68;;;4.78;;
19543;SDS011;9917;51.256;7.152;2023-03-01T13:32:19;9.05;;;5.25;;
19543;SDS011;9917;51.256;7.152;2023-03-01T13:34:57;7.82;;;5.82;;
19543;SDS011;9917;51.256;7.152;2023-03-01T13:37:27;6.55;;;5.10;;
19543;SDS011;9917;51.256;7.152;2023-03-01T13:40:05;7.85;;;5.25;;
19543;SDS011;9917;51.256;7.152;2023-03-01T13:42:50;6.65;;;4.70;;
19543;SDS011;9917;51.256;7.152;2023-03-01T13:45:19;6.55;;;4.43;;
19543;SDS011;9917;51.256;7.152;2023-03-01T13:47:55;7.57;;;4.63;;
19543;SDS011;9917;51.256;7.152;2023-03-01T13:50:25;7.30;;;4.80;;
19543;SDS011;9917;51.256;7.152;2023-03-01T13:52:55;6.72;;;4.72;;
19543;SDS011;9917;51.256;7.152;2023-03-01T13:55:23;7.70;;;4.95;;
19543;SDS011;9917;51.256;7.152;2023-03-01T13:57:53;7.22;;;4.82;;
19543;SDS011;9917;51.256;7.152;2023-03-01T14:03:03;8.02;;;4.72;;
19543;SDS011;9917;51.256;7.152;2023-03-01T14:05:35;6.60;;;4.72;;
19543;SDS011;9917;51.256;7.152;2023-03-01T14:08:04;10.35;;;5.50;;
19543;SDS011;9917;51.256;7.152;2023-03-01T14:10:48;11.48;;;5.47;;
19543;SDS011;9917;51.256;7.152;2023-03-01T14:13:39;8.68;;;4.90;;
19543;SDS011;9917;51.256;7.152;2023-03-01T14:16:24;7.82;;;5.47;;
19543;SDS011;9917;51.256;7.152;2023-03-01T14:19:04;7.85;;;5.25;;
19543;SDS011;9917;51.256;7.152;2023-03-01T14:21:40;13.05;;;5.07;;
19543;SDS011;9917;51.256;7.152;2023-03-01T14:24:05;8.23;;;5.05;;
19543;SDS011;9917;51.256;7.152;2023-03-01T14:26:41;7.60;;;5.28;;
19543;SDS011;9917;51.256;7.152;2023-03-01T14:29:11;8.57;;;5.07;;
19543;SDS011;9917;51.256;7.152;2023-03-01T14:31:52;8.05;;;4.30;;
19543;SDS011;9917;51.256;7.152;2023-03-01T14:34:33;7.25;;;4.82;;
19543;SDS011;9917;51.256;7.152;2023-03-01T14:37:09;7.43;;;4.65;;
19543;SDS011;9917;51.256;7.152;2023-03-01T14:39:36;9.13;;;4.57;;
19543;SDS011;9917;51.256;7.152;2023-03-01T14:42:02;7.30;;;4.65;;
19543;SDS011;9917;51.256;7.152;2023-03-01T14:44:29;8.80;;;5.43;;
19543;SDS011;9917;51.256;7.152;2023-03-01T14:46:57;7.72;;;4.65;;
19543;SDS011;9917;51.256;7.152;2023-03-01T14:49:24;7.40;;;4.28;;
19543;SDS011;9917;51.256;7.152;2023-03-01T14:51:55;7.05;;;4.65;;
19543;SDS011;9917;51.256;7.152;2023-03-01T14:54:24;7.22;;;4.60;;
19543;SDS011;9917;51.256;7.152;2023-03-01T14:56:53;7.38;;;4.75;;
19543;SDS011;9917;51.256;7.152;2023-03-01T14:59:22;10.02;;;5.00;;
19543;SDS011;9917;51.256;7.152;2023-03-01T15:01:48;7.13;;;4.22;;
19543;SDS011;9917;51.256;7.152;2023-03-01T15:04:17;6.95;;;4.40;;
19543;SDS011;9917;51.256;7.152;2023-03-01T15:06:43;5.85;;;4.40;;
19543;SDS011;9917;51.256;7.152;2023-03-01T15:09:12;8.55;;;4.65;;
19543;SDS011;9917;51.256;7.152;2023-03-01T15:11:40;9.20;;;4.95;;
19543;SDS011;9917;51.256;7.152;2023-03-01T15:16:54;9.10;;;5.50;;